createdAt,value
2023-01-29T00:00:00.422Z,-1.19
2023-01-29T00:03:40.315Z,-1.14
2023-01-29T00:07:01.383Z,-1.09
2023-01-29T00:09:52.651Z,-1.06
2023-01-29T00:12:20.673Z,-1.13
2023-01-29T00:14:49.683Z,-1.13
2023-01-29T00:17:20.246Z,-1.13
2023-01-29T00:19:48.282Z,-1.09
2023-01-29T00:22:16.195Z,-1.08
2023-01-29T00:24:44.414Z,-1.03
2023-01-29T00:27:12.293Z,-0.99
2023-01-29T00:29:43.518Z,-0.97
2023-01-29T00:32:11.507Z,-0.89
2023-01-29T00:34:39.684Z,-0.82
2023-01-29T00:37:08.838Z,-0.78
2023-01-29T00:39:47.733Z,-0.70
2023-01-29T00:42:32.265Z,-0.64
2023-01-29T00:45:00.785Z,-0.60
2023-01-29T00:47:33.229Z,-0.56
2023-01-29T00:50:03.292Z,-0.58
2023-01-29T00:52:31.203Z,-0.60
2023-01-29T00:55:00.615Z,-0.54
2023-01-29T00:57:31.849Z,-0.61
2023-01-29T00:59:59.837Z,-0.67
2023-01-29T01:02:43.509Z,-0.72
2023-01-29T01:05:18.414Z,-0.70
2023-01-29T01:07:49.093Z,-0.67
2023-01-29T01:10:20.901Z,-0.63
2023-01-29T01:13:22.400Z,-0.63
2023-01-29T01:17:03.282Z,-0.67
2023-01-29T01:20:49.372Z,-0.72
2023-01-29T01:24:40.302Z,-0.70
2023-01-29T01:28:44.285Z,-0.68
2023-01-29T01:35:53.141Z,-0.63
2023-01-29T01:43:06.398Z,-0.63
2023-01-29T01:45:57.418Z,-0.60
2023-01-29T01:48:27.685Z,-0.53
2023-01-29T01:51:03.410Z,-0.46
2023-01-29T01:53:39.205Z,-0.40
2023-01-29T01:56:12.817Z,-0.34
2023-01-29T01:58:50.534Z,-0.28
2023-01-29T02:01:21.378Z,-0.24
2023-01-29T02:04:07.404Z,-0.18
2023-01-29T02:06:47.498Z,-0.09
2023-01-29T02:09:36.086Z,-0.01
2023-01-29T02:12:07.711Z,0.03
2023-01-29T02:14:40.755Z,0.02
2023-01-29T02:17:12.055Z,0.03
2023-01-29T02:19:58.568Z,0.03
2023-01-29T02:22:47.255Z,0.01
2023-01-29T02:25:39.322Z,0.02
2023-01-29T02:28:18.859Z,0.01
2023-01-29T02:31:12.873Z,-0.08
2023-01-29T02:34:06.951Z,-0.11
2023-01-29T02:36:50.584Z,-0.21
2023-01-29T02:39:42.346Z,-0.23
2023-01-29T02:42:27.899Z,-0.30
2023-01-29T02:45:06.569Z,-0.31
2023-01-29T02:47:45.744Z,-0.35
2023-01-29T02:50:21.182Z,-0.47
2023-01-29T02:53:09.534Z,-0.56
2023-01-29T02:55:49.286Z,-0.66
2023-01-29T02:58:33.951Z,-0.64
2023-01-29T03:01:09.949Z,-0.71
2023-01-29T03:03:43.509Z,-0.80
2023-01-29T03:06:22.319Z,-0.89
2023-01-29T03:08:56.764Z,-0.93
2023-01-29T03:11:27.640Z,-0.89
2023-01-29T03:14:03.213Z,-0.92
2023-01-29T03:16:37.308Z,-0.92
2023-01-29T03:19:14.228Z,-0.89
2023-01-29T03:21:55.042Z,-1.03
2023-01-29T03:25:03.534Z,-0.94
2023-01-29T03:27:52.793Z,-1.04
2023-01-29T03:30:33.061Z,-1.02
2023-01-29T03:33:12.648Z,-1.08
2023-01-29T03:35:49.558Z,-1.01
2023-01-29T03:38:18.056Z,-0.98
2023-01-29T03:40:59.766Z,-0.95
2023-01-29T03:43:39.853Z,-1.02
2023-01-29T03:46:19.210Z,-0.96
2023-01-29T03:49:00.411Z,-0.93
2023-01-29T03:51:46.821Z,-0.96
2023-01-29T03:54:26.412Z,-0.89
2023-01-29T03:57:03.200Z,-0.90
2023-01-29T03:59:41.548Z,-0.95
2023-01-29T04:02:32.460Z,-1.10
2023-01-29T04:05:10.024Z,-1.14
2023-01-29T04:07:47.557Z,-1.22
2023-01-29T04:10:21.414Z,-1.22
2023-01-29T04:12:56.910Z,-1.19
2023-01-29T04:15:28.962Z,-1.28
2023-01-29T04:17:58.715Z,-1.25
2023-01-29T04:20:35.964Z,-1.24
2023-01-29T04:23:07.424Z,-1.26
2023-01-29T04:25:44.813Z,-1.23
2023-01-29T04:28:23.427Z,-1.21
2023-01-29T04:30:58.838Z,-1.21
2023-01-29T04:34:06.926Z,-1.19
2023-01-29T04:37:09.891Z,-1.16
2023-01-29T04:39:49.313Z,-1.12
2023-01-29T04:42:31.161Z,-1.11
2023-01-29T04:45:11.985Z,-1.09
2023-01-29T04:47:56.784Z,-1.04
2023-01-29T04:50:44.952Z,-1.05
2023-01-29T04:53:47.926Z,-1.10
2023-01-29T04:56:43.744Z,-1.07
2023-01-29T04:59:38.671Z,-1.00
2023-01-29T05:02:12.543Z,-0.96
2023-01-29T05:04:52.005Z,-0.96
2023-01-29T05:07:22.392Z,-0.95
2023-01-29T05:09:53.639Z,-1.01
2023-01-29T05:12:25.718Z,-1.05
2023-01-29T05:14:55.978Z,-1.16
2023-01-29T05:17:25.719Z,-1.22
2023-01-29T05:19:57.643Z,-1.26
2023-01-29T05:22:36.715Z,-1.31
2023-01-29T05:25:45.330Z,-1.38
2023-01-29T05:28:17.269Z,-1.41
2023-01-29T05:30:52.673Z,-1.42
2023-01-29T05:33:39.265Z,-1.40
2023-01-29T05:36:39.479Z,-1.36
2023-01-29T05:39:28.990Z,-1.31
2023-01-29T05:42:08.836Z,-1.26
2023-01-29T05:45:25.148Z,-1.21
2023-01-29T05:47:58.012Z,-1.21
2023-01-29T05:50:43.197Z,-1.31
2023-01-29T05:53:26.381Z,-1.26
2023-01-29T05:56:01.420Z,-1.25
2023-01-29T05:58:46.778Z,-1.27
2023-01-29T06:01:55.743Z,-1.30
2023-01-29T06:04:45.363Z,-1.34
2023-01-29T06:07:35.727Z,-1.37
2023-01-29T06:10:18.442Z,-1.43
2023-01-29T06:12:59.993Z,-1.51
2023-01-29T06:15:42.948Z,-1.56
2023-01-29T06:18:14.672Z,-1.57
2023-01-29T06:28:48.327Z,-1.49
2023-01-29T06:35:18.308Z,-1.46
2023-01-29T06:39:32.328Z,-1.52
2023-01-29T06:43:32.322Z,-1.63
2023-01-29T06:46:56.278Z,-1.69
2023-01-29T06:50:54.445Z,-1.69
2023-01-29T06:54:50.292Z,-1.71
2023-01-29T06:58:26.382Z,-1.73
2023-01-29T07:01:48.409Z,-1.70
2023-01-29T07:05:43.324Z,-1.64
2023-01-29T07:09:31.316Z,-1.49
2023-01-29T07:13:05.282Z,-1.37
2023-01-29T07:16:42.353Z,-1.32
2023-01-29T07:20:08.573Z,-1.33
2023-01-29T07:23:47.335Z,-1.28
2023-01-29T07:27:29.397Z,-1.24
2023-01-29T07:31:06.359Z,-1.27
2023-01-29T07:34:51.258Z,-1.28
2023-01-29T07:38:49.308Z,-1.32
2023-01-29T07:42:30.323Z,-1.38
2023-01-29T07:46:20.302Z,-1.45
2023-01-29T07:50:09.593Z,-1.48
2023-01-29T07:53:42.341Z,-1.47
2023-01-29T07:57:09.377Z,-1.63
2023-01-29T08:01:09.447Z,-1.59
2023-01-29T08:04:58.252Z,-1.45
2023-01-29T08:08:49.331Z,-1.33
2023-01-29T08:12:39.291Z,-1.17
2023-01-29T08:16:28.383Z,-1.07
2023-01-29T08:19:45.251Z,-1.09
2023-01-29T08:23:22.272Z,-1.09
2023-01-29T08:27:02.270Z,-1.10
2023-01-29T08:30:36.440Z,-1.09
2023-01-29T08:34:13.277Z,-1.06
2023-01-29T08:37:58.936Z,-1.03
2023-01-29T08:45:11.262Z,-0.99
2023-01-29T08:48:58.334Z,-0.98
2023-01-29T08:52:48.318Z,-0.95
2023-01-29T08:56:17.360Z,-0.94
2023-01-29T08:59:54.289Z,-0.88
2023-01-29T09:03:29.373Z,-0.74
2023-01-29T09:07:38.267Z,-0.64
2023-01-29T09:11:15.308Z,-0.54
2023-01-29T09:14:37.299Z,-0.47
2023-01-29T09:18:06.318Z,-0.48
2023-01-29T09:21:22.298Z,-0.54
2023-01-29T09:24:55.355Z,-0.58
2023-01-29T09:28:30.331Z,-0.57
2023-01-29T09:31:32.522Z,-0.49
2023-01-29T09:35:12.318Z,-0.43
2023-01-29T09:45:57.069Z,-0.48
2023-01-29T09:49:26.442Z,-0.45
2023-01-29T09:52:51.272Z,-0.40
2023-01-29T09:56:11.282Z,-0.35
2023-01-29T09:59:41.283Z,-0.30
2023-01-29T10:03:12.268Z,-0.27
2023-01-29T10:06:34.168Z,-0.25
2023-01-29T10:13:08.273Z,-0.13
2023-01-29T10:16:25.256Z,-0.07
2023-01-29T10:19:46.351Z,0.05
2023-01-29T10:23:19.311Z,0.10
2023-01-29T10:26:49.375Z,0.11
2023-01-29T10:30:20.360Z,0.13
2023-01-29T10:33:49.005Z,0.13
2023-01-29T10:37:09.379Z,0.09
2023-01-29T10:40:35.353Z,-0.14
2023-01-29T10:44:10.285Z,-0.23
2023-01-29T10:47:23.310Z,-0.28
2023-01-29T10:50:40.318Z,-0.33
2023-01-29T10:53:53.254Z,-0.35
2023-01-29T10:57:15.337Z,-0.36
2023-01-29T11:01:03.295Z,-0.35
2023-01-29T11:04:19.158Z,-0.29
2023-01-29T11:07:32.280Z,-0.27
2023-01-29T11:10:38.293Z,-0.34
2023-01-29T11:14:05.304Z,-0.51
2023-01-29T11:17:18.378Z,-0.66
2023-01-29T11:20:55.269Z,-0.58
2023-01-29T11:24:19.327Z,-0.65
2023-01-29T11:27:34.281Z,-0.82
2023-01-29T11:31:03.361Z,-0.76
2023-01-29T11:34:24.208Z,-0.82
2023-01-29T11:37:26.312Z,-0.97
2023-01-29T11:40:40.287Z,-1.00
2023-01-29T11:44:23.112Z,-1.01
2023-01-29T11:47:35.266Z,-0.80
2023-01-29T11:50:45.565Z,-0.68
2023-01-29T11:54:09.309Z,-0.51
2023-01-29T11:57:47.772Z,-0.53
2023-01-29T12:01:01.254Z,-0.55
2023-01-29T12:04:49.346Z,-0.53
2023-01-29T12:08:02.233Z,-0.50
2023-01-29T12:11:14.329Z,-0.55
2023-01-29T12:14:08.312Z,-0.59
2023-01-29T12:17:23.303Z,-0.65
2023-01-29T12:21:02.386Z,-0.56
2023-01-29T12:28:14.319Z,-0.48
2023-01-29T12:31:46.354Z,-0.44
2023-01-29T12:35:03.312Z,-0.45
2023-01-29T12:38:32.278Z,-0.53
2023-01-29T12:41:48.282Z,-0.58
2023-01-29T12:45:04.265Z,-0.82
2023-01-29T12:51:47.316Z,-0.90
2023-01-29T12:55:09.007Z,-0.87
2023-01-29T12:58:29.307Z,-0.88
2023-01-29T13:01:27.262Z,-0.90
2023-01-29T13:05:02.699Z,-0.90
2023-01-29T13:08:46.634Z,-0.95
2023-01-29T13:15:55.318Z,-1.02
2023-01-29T13:22:43.547Z,-0.93
2023-01-29T13:25:32.401Z,-1.18
2023-01-29T13:28:35.299Z,-1.11
2023-01-29T13:32:06.246Z,-1.14
2023-01-29T13:35:17.731Z,-1.21
2023-01-29T13:38:29.290Z,-1.24
2023-01-29T13:41:54.015Z,-1.30
2023-01-29T13:44:58.317Z,-1.34
2023-01-29T13:48:26.209Z,-1.41
2023-01-29T13:51:50.287Z,-1.34
2023-01-29T13:55:03.232Z,-1.36
2023-01-29T14:05:20.287Z,-1.29
2023-01-29T14:08:32.212Z,-1.31
2023-01-29T14:11:37.616Z,-1.40
2023-01-29T14:14:39.315Z,-1.40
2023-01-29T14:17:50.303Z,-1.43
2023-01-29T14:21:02.306Z,-1.47
2023-01-29T14:24:35.724Z,-1.49
2023-01-29T14:27:58.329Z,-1.55
2023-01-29T14:31:56.953Z,-1.64
2023-01-29T14:35:26.307Z,-1.67
2023-01-29T14:38:57.264Z,-1.75
2023-01-29T14:42:35.254Z,-1.66
2023-01-29T14:45:52.242Z,-1.64
2023-01-29T14:49:16.432Z,-1.72
2023-01-29T14:52:52.278Z,-1.68
2023-01-29T14:56:02.330Z,-1.70
2023-01-29T14:59:20.280Z,-1.74
2023-01-29T15:02:27.375Z,-1.75
2023-01-29T15:05:54.331Z,-1.84
2023-01-29T15:09:36.472Z,-1.88
2023-01-29T15:16:38.299Z,-1.90
2023-01-29T15:20:05.256Z,-1.95
2023-01-29T15:23:25.331Z,-1.87
2023-01-29T15:27:15.294Z,-1.85
2023-01-29T15:30:24.350Z,-1.80
2023-01-29T15:36:53.589Z,-1.91
2023-01-29T15:40:22.291Z,-1.94
2023-01-29T15:43:56.298Z,-1.94
2023-01-29T15:50:28.312Z,-2.02
2023-01-29T15:53:51.309Z,-2.03
2023-01-29T15:57:12.338Z,-2.13
2023-01-29T16:00:43.290Z,-2.08
2023-01-29T16:07:10.303Z,-2.04
2023-01-29T16:10:16.326Z,-1.99
2023-01-29T16:13:48.298Z,-2.01
2023-01-29T16:17:30.272Z,-2.05
2023-01-29T16:24:54.335Z,-2.14
2023-01-29T16:35:32.332Z,-2.20
2023-01-29T16:46:02.304Z,-2.13
2023-01-29T16:49:12.316Z,-2.13
2023-01-29T16:53:04.295Z,-2.12
2023-01-29T17:07:35.770Z,-2.13
2023-01-29T17:10:56.780Z,-2.36
2023-01-29T17:14:25.833Z,-2.27
2023-01-29T17:17:38.825Z,-2.29
2023-01-29T17:21:15.820Z,-2.40
2023-01-29T17:24:38.782Z,-2.40
2023-01-29T17:28:22.839Z,-2.39
2023-01-29T17:31:51.862Z,-2.38
2023-01-29T17:35:08.855Z,-2.41
2023-01-29T17:38:26.359Z,-2.39
2023-01-29T17:41:25.879Z,-2.36
2023-01-29T17:55:12.805Z,-2.25
2023-01-29T17:58:34.852Z,-2.23
2023-01-29T18:01:52.790Z,-2.22
2023-01-29T18:05:05.808Z,-2.23
2023-01-29T18:08:41.835Z,-2.26
2023-01-29T18:11:39.861Z,-2.29
2023-01-29T18:15:36.875Z,-2.39
2023-01-29T18:22:13.852Z,-2.45
2023-01-29T18:29:14.852Z,-2.44
2023-01-29T18:32:34.775Z,-2.46
2023-01-29T18:35:49.837Z,-2.43
2023-01-29T18:39:13.783Z,-2.36
2023-01-29T18:42:43.868Z,-2.31
2023-01-29T18:46:14.649Z,-2.27
2023-01-29T18:49:50.880Z,-2.26
2023-01-29T18:53:39.787Z,-2.26
2023-01-29T18:57:11.552Z,-2.29
2023-01-29T19:00:36.892Z,-2.37
2023-01-29T19:03:48.809Z,-2.46
2023-01-29T19:06:48.844Z,-2.46
2023-01-29T19:10:39.242Z,-2.46
2023-01-29T19:14:20.939Z,-2.46
2023-01-29T19:18:31.108Z,-2.51
2023-01-29T19:21:55.888Z,-2.47
2023-01-29T19:25:46.822Z,-2.47
2023-01-29T19:28:51.122Z,-2.41
2023-01-29T19:32:16.064Z,-2.46
2023-01-29T19:34:52.029Z,-2.42
2023-01-29T19:37:50.796Z,-2.42
2023-01-29T19:41:19.784Z,-2.44
2023-01-29T19:44:49.822Z,-2.47
2023-01-29T19:51:38.778Z,-2.59
2023-01-29T19:54:39.914Z,-2.63
2023-01-29T19:58:09.737Z,-2.70
2023-01-29T20:01:23.830Z,-2.68
2023-01-29T20:04:47.763Z,-2.68
2023-01-29T20:08:11.849Z,-2.62
2023-01-29T20:11:52.792Z,-2.59
2023-01-29T20:15:30.826Z,-2.62
2023-01-29T20:18:55.813Z,-2.67
2023-01-29T20:22:32.064Z,-2.74
2023-01-29T20:26:11.913Z,-2.80
2023-01-29T20:29:30.790Z,-2.91
2023-01-29T20:32:52.790Z,-2.92
2023-01-29T20:36:12.799Z,-2.93
2023-01-29T20:39:34.798Z,-2.94
2023-01-29T20:43:06.801Z,-2.97
2023-01-29T20:46:26.772Z,-3.05
2023-01-29T20:49:31.572Z,-3.00
2023-01-29T20:52:05.033Z,-2.97
2023-01-29T20:54:39.684Z,-2.94
2023-01-29T20:57:16.911Z,-2.98
2023-01-29T20:59:48.658Z,-2.95
2023-01-29T21:02:44.867Z,-3.00
2023-01-29T21:05:23.465Z,-3.04
2023-01-29T21:08:13.167Z,-3.11
2023-01-29T21:11:02.135Z,-3.16
2023-01-29T21:13:58.528Z,-3.24
2023-01-29T21:16:36.031Z,-3.24
2023-01-29T21:19:04.575Z,-3.25
2023-01-29T21:22:08.261Z,-3.25
2023-01-29T21:24:59.213Z,-3.38
2023-01-29T21:27:51.230Z,-3.35
2023-01-29T21:30:40.771Z,-3.38
2023-01-29T21:33:29.605Z,-3.39
2023-01-29T21:36:40.047Z,-3.42
2023-01-29T21:39:36.269Z,-3.43
2023-01-29T21:42:55.811Z,-3.39
2023-01-29T21:46:05.131Z,-3.38
2023-01-29T21:48:43.472Z,-3.43
2023-01-29T21:51:12.310Z,-3.33
2023-01-29T21:53:44.646Z,-3.28
2023-01-29T21:56:19.794Z,-3.36
2023-01-29T21:58:49.589Z,-3.27
2023-01-29T22:01:37.549Z,-3.28
2023-01-29T22:04:09.053Z,-3.25
2023-01-29T22:06:38.808Z,-3.25
2023-01-29T22:09:10.754Z,-3.25
2023-01-29T22:11:41.523Z,-3.26
2023-01-29T22:14:09.757Z,-3.29
2023-01-29T22:16:38.548Z,-3.29
2023-01-29T22:19:07.017Z,-3.30
2023-01-29T22:21:36.012Z,-3.30
2023-01-29T22:24:04.596Z,-3.32
2023-01-29T22:26:40.077Z,-3.35
2023-01-29T22:29:08.370Z,-3.39
2023-01-29T22:31:40.692Z,-3.42
2023-01-29T22:34:14.061Z,-3.44
2023-01-29T22:36:42.204Z,-3.40
2023-01-29T22:39:12.015Z,-3.42
2023-01-29T22:41:48.275Z,-3.41
2023-01-29T22:44:18.442Z,-3.40
2023-01-29T22:47:07.855Z,-3.46
2023-01-29T22:50:05.844Z,-3.43
2023-01-29T22:52:54.378Z,-3.42
2023-01-29T22:55:23.875Z,-3.42
2023-01-29T22:57:53.371Z,-3.42
2023-01-29T23:00:23.149Z,-3.44
2023-01-29T23:03:01.491Z,-3.48
2023-01-29T23:05:34.124Z,-3.45
2023-01-29T23:08:17.988Z,-3.45
2023-01-29T23:10:50.713Z,-3.42
2023-01-29T23:13:40.117Z,-3.41
2023-01-29T23:16:12.372Z,-3.41
2023-01-29T23:18:41.368Z,-3.46
2023-01-29T23:21:10.586Z,-3.42
2023-01-29T23:23:48.552Z,-3.40
2023-01-29T23:26:32.243Z,-3.39
2023-01-29T23:29:52.085Z,-3.37
2023-01-29T23:33:19.101Z,-3.37
2023-01-29T23:37:24.799Z,-3.35
2023-01-29T23:41:38.129Z,-3.32
2023-01-29T23:45:39.770Z,-3.31
2023-01-29T23:49:35.727Z,-3.27
2023-01-29T23:53:29.524Z,-3.25
2023-01-29T23:56:59.760Z,-3.23
